Terminal Aerodrome Forecast
Issued by NWS

Home | Current Version | Previous Version | Text Only | Print | Product List | Glossary On
Versions: 1 2 3 4 5 6 7 8 9 10 11 12 13 14 15 16
000
FTUS44 KMAF 191100
TAFPEQ
TAF
KPEQ 191120Z 1912/2012 09009KT P6SM SCT008 BKN035 OVC070
      TEMPO 1912/1914 3SM TSRA BR OVC030CB
     FM191400 10007KT P6SM OVC030
      TEMPO 1914/1918 3SM TSRA BR OVC015CB
     FM191800 10006KT P6SM OVC040
      TEMPO 1918/1922 5SM TSRA OVC030CB
     FM200600 07004KT 6SM BR OVC035=

USA.gov is the U.S. government's official web portal to all federal, state and local government web resources and services.